<?xml version="1.0" encoding="UTF-8" standalone="no" ?>
<gpx xmlns="http://www.topografix.com/GPX/1/1" xmlns:xsi="http://www.w3.org/2001/XMLSchema-instance" xsi:schemaLocation="http://www.topografix.com/GPX/1/1 http://www.topografix.com/GPX/1/1/gpx.xsd" version="1.1" creator="VisuGPX - https://www.visugpx.com">
  <metadata>
    <name>Île de la Platière - Circuit N°2</name>
    <desc><![CDATA["A la découverte de l'environnement"  circuit au départ du parking Méandres des Oves.]]></desc>
  </metadata>
  <trk>
    <name><![CDATA[Platière-Circuit N°2]]></name>
    <trkseg>
      <trkpt lat="45.36536" lon="4.76492">
        <ele>112.005</ele>
        <time>2017-09-04T09:45:55Z</time>
      </trkpt>
      <trkpt lat="45.36536" lon="4.76489">
        <ele>113.124</ele>
        <time>2017-09-04T09:46:23Z</time>
      </trkpt>
      <trkpt lat="45.3653" lon="4.76482">
        <ele>124.786</ele>
        <time>2017-09-04T09:47:15Z</time>
      </trkpt>
      <trkpt lat="45.36517" lon="4.76466">
        <ele>129.107</ele>
        <time>2017-09-04T09:48:49Z</time>
      </trkpt>
      <trkpt lat="45.36521" lon="4.7645">
        <ele>128.797</ele>
        <time>2017-09-04T09:49:15Z</time>
      </trkpt>
      <trkpt lat="45.36524" lon="4.76448">
        <ele>129.172</ele>
        <time>2017-09-04T09:49:19Z</time>
      </trkpt>
      <trkpt lat="45.3653" lon="4.76444">
        <ele>129.219</ele>
        <time>2017-09-04T09:49:32Z</time>
      </trkpt>
      <trkpt lat="45.36529" lon="4.7644">
        <ele>129.122</ele>
        <time>2017-09-04T09:49:50Z</time>
      </trkpt>
      <trkpt lat="45.36536" lon="4.76435">
        <ele>128.821</ele>
        <time>2017-09-04T09:50:07Z</time>
      </trkpt>
      <trkpt lat="45.3656" lon="4.76409">
        <ele>128.762</ele>
        <time>2017-09-04T09:50:32Z</time>
      </trkpt>
      <trkpt lat="45.36583" lon="4.76388">
        <ele>128.481</ele>
        <time>2017-09-04T09:50:55Z</time>
      </trkpt>
      <trkpt lat="45.36606" lon="4.76376">
        <ele>129.029</ele>
        <time>2017-09-04T09:51:18Z</time>
      </trkpt>
      <trkpt lat="45.36612" lon="4.76369">
        <ele>128.894</ele>
        <time>2017-09-04T09:51:27Z</time>
      </trkpt>
      <trkpt lat="45.36617" lon="4.76366">
        <ele>129.309</ele>
        <time>2017-09-04T09:51:40Z</time>
      </trkpt>
      <trkpt lat="45.36612" lon="4.76368">
        <ele>129.232</ele>
        <time>2017-09-04T09:52:10Z</time>
      </trkpt>
      <trkpt lat="45.3661" lon="4.76369">
        <ele>129.272</ele>
        <time>2017-09-04T09:52:12Z</time>
      </trkpt>
      <trkpt lat="45.36606" lon="4.76373">
        <ele>129.103</ele>
        <time>2017-09-04T09:52:17Z</time>
      </trkpt>
      <trkpt lat="45.36592" lon="4.76381">
        <ele>128.978</ele>
        <time>2017-09-04T09:52:32Z</time>
      </trkpt>
      <trkpt lat="45.36568" lon="4.764">
        <ele>129.323</ele>
        <time>2017-09-04T09:52:58Z</time>
      </trkpt>
      <trkpt lat="45.36546" lon="4.76424">
        <ele>129.988</ele>
        <time>2017-09-04T09:53:23Z</time>
      </trkpt>
      <trkpt lat="45.36526" lon="4.76437">
        <ele>130.382</ele>
        <time>2017-09-04T09:53:43Z</time>
      </trkpt>
      <trkpt lat="45.36508" lon="4.76442">
        <ele>130.569</ele>
        <time>2017-09-04T09:54:00Z</time>
      </trkpt>
      <trkpt lat="45.36506" lon="4.76441">
        <ele>130.686</ele>
        <time>2017-09-04T09:54:03Z</time>
      </trkpt>
      <trkpt lat="45.36502" lon="4.76437">
        <ele>130.223</ele>
        <time>2017-09-04T09:54:07Z</time>
      </trkpt>
      <trkpt lat="45.36494" lon="4.76425">
        <ele>130.244</ele>
        <time>2017-09-04T09:54:23Z</time>
      </trkpt>
      <trkpt lat="45.36487" lon="4.76418">
        <ele>130.41</ele>
        <time>2017-09-04T09:55:15Z</time>
      </trkpt>
      <trkpt lat="45.36486" lon="4.76413">
        <ele>130.305</ele>
        <time>2017-09-04T09:55:27Z</time>
      </trkpt>
      <trkpt lat="45.3646" lon="4.76422">
        <ele>130.104</ele>
        <time>2017-09-04T09:55:49Z</time>
      </trkpt>
      <trkpt lat="45.36441" lon="4.76437">
        <ele>130.167</ele>
        <time>2017-09-04T09:56:08Z</time>
      </trkpt>
      <trkpt lat="45.36441" lon="4.76471">
        <ele>130.027</ele>
        <time>2017-09-04T09:56:29Z</time>
      </trkpt>
      <trkpt lat="45.36442" lon="4.76482">
        <ele>129.921</ele>
        <time>2017-09-04T09:56:35Z</time>
      </trkpt>
      <trkpt lat="45.36442" lon="4.76487">
        <ele>130.074</ele>
        <time>2017-09-04T09:56:38Z</time>
      </trkpt>
      <trkpt lat="45.3644" lon="4.76517">
        <ele>130.121</ele>
        <time>2017-09-04T09:56:58Z</time>
      </trkpt>
      <trkpt lat="45.36438" lon="4.76519">
        <ele>130.316</ele>
        <time>2017-09-04T09:57:10Z</time>
      </trkpt>
      <trkpt lat="45.36413" lon="4.7653">
        <ele>130.56</ele>
        <time>2017-09-04T09:57:36Z</time>
      </trkpt>
      <trkpt lat="45.3639" lon="4.76534">
        <ele>130.685</ele>
        <time>2017-09-04T09:57:56Z</time>
      </trkpt>
      <trkpt lat="45.36357" lon="4.76539">
        <ele>130.84</ele>
        <time>2017-09-04T09:58:22Z</time>
      </trkpt>
      <trkpt lat="45.36326" lon="4.76544">
        <ele>130.768</ele>
        <time>2017-09-04T09:58:47Z</time>
      </trkpt>
      <trkpt lat="45.36314" lon="4.76545">
        <ele>130.607</ele>
        <time>2017-09-04T09:58:57Z</time>
      </trkpt>
      <trkpt lat="45.36301" lon="4.76548">
        <ele>130.412</ele>
        <time>2017-09-04T09:59:10Z</time>
      </trkpt>
      <trkpt lat="45.36273" lon="4.76555">
        <ele>130.435</ele>
        <time>2017-09-04T09:59:32Z</time>
      </trkpt>
      <trkpt lat="45.36252" lon="4.76565">
        <ele>130.941</ele>
        <time>2017-09-04T09:59:52Z</time>
      </trkpt>
      <trkpt lat="45.36232" lon="4.76575">
        <ele>130.531</ele>
        <time>2017-09-04T10:00:12Z</time>
      </trkpt>
      <trkpt lat="45.36215" lon="4.76583">
        <ele>130.436</ele>
        <time>2017-09-04T10:00:32Z</time>
      </trkpt>
      <trkpt lat="45.3619" lon="4.76593">
        <ele>130.498</ele>
        <time>2017-09-04T10:00:54Z</time>
      </trkpt>
      <trkpt lat="45.36186" lon="4.7658">
        <ele>130.543</ele>
        <time>2017-09-04T10:01:10Z</time>
      </trkpt>
      <trkpt lat="45.36187" lon="4.76588">
        <ele>130.908</ele>
        <time>2017-09-04T10:01:15Z</time>
      </trkpt>
      <trkpt lat="45.36185" lon="4.76554">
        <ele>131.243</ele>
        <time>2017-09-04T10:02:54Z</time>
      </trkpt>
      <trkpt lat="45.36181" lon="4.76518">
        <ele>131.178</ele>
        <time>2017-09-04T10:03:17Z</time>
      </trkpt>
      <trkpt lat="45.36182" lon="4.7651">
        <ele>131.373</ele>
        <time>2017-09-04T10:03:24Z</time>
      </trkpt>
      <trkpt lat="45.36182" lon="4.76503">
        <ele>131.295</ele>
        <time>2017-09-04T10:03:29Z</time>
      </trkpt>
      <trkpt lat="45.36182" lon="4.7649">
        <ele>131.378</ele>
        <time>2017-09-04T10:03:38Z</time>
      </trkpt>
      <trkpt lat="45.3618" lon="4.76467">
        <ele>131.572</ele>
        <time>2017-09-04T10:03:55Z</time>
      </trkpt>
      <trkpt lat="45.36182" lon="4.76447">
        <ele>131.545</ele>
        <time>2017-09-04T10:04:11Z</time>
      </trkpt>
      <trkpt lat="45.36172" lon="4.76446">
        <ele>131.775</ele>
        <time>2017-09-04T10:06:25Z</time>
      </trkpt>
      <trkpt lat="45.36162" lon="4.76452">
        <ele>132.63</ele>
        <time>2017-09-04T10:06:37Z</time>
      </trkpt>
      <trkpt lat="45.36153" lon="4.76441">
        <ele>132.303</ele>
        <time>2017-09-04T10:06:56Z</time>
      </trkpt>
      <trkpt lat="45.36149" lon="4.7645">
        <ele>133.194</ele>
        <time>2017-09-04T10:07:39Z</time>
      </trkpt>
      <trkpt lat="45.36142" lon="4.7647">
        <ele>132.546</ele>
        <time>2017-09-04T10:07:55Z</time>
      </trkpt>
      <trkpt lat="45.36133" lon="4.76492">
        <ele>133.279</ele>
        <time>2017-09-04T10:08:14Z</time>
      </trkpt>
      <trkpt lat="45.36128" lon="4.76503">
        <ele>133.39</ele>
        <time>2017-09-04T10:08:32Z</time>
      </trkpt>
      <trkpt lat="45.36118" lon="4.76525">
        <ele>133.26</ele>
        <time>2017-09-04T10:08:49Z</time>
      </trkpt>
      <trkpt lat="45.36103" lon="4.76546">
        <ele>133.013</ele>
        <time>2017-09-04T10:09:11Z</time>
      </trkpt>
      <trkpt lat="45.36091" lon="4.76565">
        <ele>133.238</ele>
        <time>2017-09-04T10:09:29Z</time>
      </trkpt>
      <trkpt lat="45.36086" lon="4.76574">
        <ele>133.723</ele>
        <time>2017-09-04T10:09:36Z</time>
      </trkpt>
      <trkpt lat="45.36084" lon="4.76577">
        <ele>133.453</ele>
        <time>2017-09-04T10:09:39Z</time>
      </trkpt>
      <trkpt lat="45.36074" lon="4.76587">
        <ele>132.577</ele>
        <time>2017-09-04T10:09:51Z</time>
      </trkpt>
      <trkpt lat="45.36071" lon="4.76589">
        <ele>132.68</ele>
        <time>2017-09-04T10:10:34Z</time>
      </trkpt>
      <trkpt lat="45.36054" lon="4.76619">
        <ele>133.059</ele>
        <time>2017-09-04T10:11:25Z</time>
      </trkpt>
      <trkpt lat="45.36044" lon="4.76639">
        <ele>133.605</ele>
        <time>2017-09-04T10:11:56Z</time>
      </trkpt>
      <trkpt lat="45.36031" lon="4.76653">
        <ele>133.492</ele>
        <time>2017-09-04T10:12:15Z</time>
      </trkpt>
      <trkpt lat="45.36025" lon="4.76663">
        <ele>133.491</ele>
        <time>2017-09-04T10:12:23Z</time>
      </trkpt>
      <trkpt lat="45.3602" lon="4.76675">
        <ele>134.734</ele>
        <time>2017-09-04T10:12:33Z</time>
      </trkpt>
      <trkpt lat="45.36018" lon="4.76679">
        <ele>134.865</ele>
        <time>2017-09-04T10:12:48Z</time>
      </trkpt>
      <trkpt lat="45.36016" lon="4.76678">
        <ele>134.965</ele>
        <time>2017-09-04T10:13:03Z</time>
      </trkpt>
      <trkpt lat="45.36004" lon="4.76698">
        <ele>135.436</ele>
        <time>2017-09-04T10:13:26Z</time>
      </trkpt>
      <trkpt lat="45.3599" lon="4.76716">
        <ele>135.269</ele>
        <time>2017-09-04T10:13:42Z</time>
      </trkpt>
      <trkpt lat="45.35974" lon="4.76744">
        <ele>135.541</ele>
        <time>2017-09-04T10:14:05Z</time>
      </trkpt>
      <trkpt lat="45.35963" lon="4.76755">
        <ele>135.842</ele>
        <time>2017-09-04T10:14:31Z</time>
      </trkpt>
      <trkpt lat="45.35949" lon="4.76759">
        <ele>135.098</ele>
        <time>2017-09-04T10:15:03Z</time>
      </trkpt>
      <trkpt lat="45.35952" lon="4.7677">
        <ele>136.099</ele>
        <time>2017-09-04T10:15:15Z</time>
      </trkpt>
      <trkpt lat="45.35949" lon="4.76774">
        <ele>135.923</ele>
        <time>2017-09-04T10:15:19Z</time>
      </trkpt>
      <trkpt lat="45.35941" lon="4.76784">
        <ele>135.761</ele>
        <time>2017-09-04T10:15:27Z</time>
      </trkpt>
      <trkpt lat="45.35937" lon="4.76789">
        <ele>135.766</ele>
        <time>2017-09-04T10:15:31Z</time>
      </trkpt>
      <trkpt lat="45.35926" lon="4.76805">
        <ele>136.031</ele>
        <time>2017-09-04T10:15:44Z</time>
      </trkpt>
      <trkpt lat="45.35921" lon="4.76818">
        <ele>135.809</ele>
        <time>2017-09-04T10:15:56Z</time>
      </trkpt>
      <trkpt lat="45.35919" lon="4.76823">
        <ele>136.305</ele>
        <time>2017-09-04T10:16:03Z</time>
      </trkpt>
      <trkpt lat="45.3592" lon="4.76829">
        <ele>136.151</ele>
        <time>2017-09-04T10:16:16Z</time>
      </trkpt>
      <trkpt lat="45.35911" lon="4.76829">
        <ele>136.103</ele>
        <time>2017-09-04T10:16:30Z</time>
      </trkpt>
      <trkpt lat="45.35906" lon="4.76823">
        <ele>135.66</ele>
        <time>2017-09-04T10:16:36Z</time>
      </trkpt>
      <trkpt lat="45.35895" lon="4.76818">
        <ele>134.485</ele>
        <time>2017-09-04T10:16:49Z</time>
      </trkpt>
      <trkpt lat="45.35887" lon="4.76814">
        <ele>133.846</ele>
        <time>2017-09-04T10:17:09Z</time>
      </trkpt>
      <trkpt lat="45.35887" lon="4.76802">
        <ele>132.574</ele>
        <time>2017-09-04T10:17:28Z</time>
      </trkpt>
      <trkpt lat="45.35909" lon="4.76828">
        <ele>133.251</ele>
        <time>2017-09-04T10:18:04Z</time>
      </trkpt>
      <trkpt lat="45.35895" lon="4.76817">
        <ele>135.724</ele>
        <time>2017-09-04T10:18:30Z</time>
      </trkpt>
      <trkpt lat="45.35908" lon="4.76839">
        <ele>136.415</ele>
        <time>2017-09-04T10:18:53Z</time>
      </trkpt>
      <trkpt lat="45.35904" lon="4.76848">
        <ele>136.953</ele>
        <time>2017-09-04T10:19:05Z</time>
      </trkpt>
      <trkpt lat="45.35899" lon="4.7686">
        <ele>136.83</ele>
        <time>2017-09-04T10:19:22Z</time>
      </trkpt>
      <trkpt lat="45.35888" lon="4.76891">
        <ele>136.898</ele>
        <time>2017-09-04T10:19:36Z</time>
      </trkpt>
      <trkpt lat="45.35883" lon="4.76902">
        <ele>136.872</ele>
        <time>2017-09-04T10:19:44Z</time>
      </trkpt>
      <trkpt lat="45.35866" lon="4.76925">
        <ele>137.423</ele>
        <time>2017-09-04T10:20:07Z</time>
      </trkpt>
      <trkpt lat="45.35859" lon="4.76929">
        <ele>137.119</ele>
        <time>2017-09-04T10:20:20Z</time>
      </trkpt>
      <trkpt lat="45.35849" lon="4.76939">
        <ele>137.513</ele>
        <time>2017-09-04T10:20:35Z</time>
      </trkpt>
      <trkpt lat="45.35811" lon="4.76987">
        <ele>138.285</ele>
        <time>2017-09-04T10:22:07Z</time>
      </trkpt>
      <trkpt lat="45.35797" lon="4.77006">
        <ele>138.429</ele>
        <time>2017-09-04T10:22:21Z</time>
      </trkpt>
      <trkpt lat="45.35764" lon="4.77047">
        <ele>138.359</ele>
        <time>2017-09-04T10:22:58Z</time>
      </trkpt>
      <trkpt lat="45.3576" lon="4.77051">
        <ele>138.385</ele>
        <time>2017-09-04T10:23:07Z</time>
      </trkpt>
      <trkpt lat="45.35754" lon="4.77058">
        <ele>138.869</ele>
        <time>2017-09-04T10:23:12Z</time>
      </trkpt>
      <trkpt lat="45.35752" lon="4.77061">
        <ele>138.504</ele>
        <time>2017-09-04T10:23:25Z</time>
      </trkpt>
      <trkpt lat="45.35717" lon="4.77108">
        <ele>138.758</ele>
        <time>2017-09-04T10:24:07Z</time>
      </trkpt>
      <trkpt lat="45.35714" lon="4.77112">
        <ele>138.751</ele>
        <time>2017-09-04T10:24:11Z</time>
      </trkpt>
      <trkpt lat="45.35712" lon="4.77113">
        <ele>139.241</ele>
        <time>2017-09-04T10:24:26Z</time>
      </trkpt>
      <trkpt lat="45.35689" lon="4.77158">
        <ele>139.978</ele>
        <time>2017-09-04T10:25:14Z</time>
      </trkpt>
      <trkpt lat="45.35653" lon="4.77214">
        <ele>140.299</ele>
        <time>2017-09-04T10:26:51Z</time>
      </trkpt>
      <trkpt lat="45.35574" lon="4.77277">
        <ele>141.127</ele>
        <time>2017-09-04T10:30:14Z</time>
      </trkpt>
      <trkpt lat="45.35564" lon="4.77287">
        <ele>141.278</ele>
        <time>2017-09-04T10:30:28Z</time>
      </trkpt>
      <trkpt lat="45.35548" lon="4.77301">
        <ele>141.487</ele>
        <time>2017-09-04T10:30:53Z</time>
      </trkpt>
      <trkpt lat="45.35539" lon="4.7731">
        <ele>141.417</ele>
        <time>2017-09-04T10:31:19Z</time>
      </trkpt>
      <trkpt lat="45.35508" lon="4.77336">
        <ele>141.576</ele>
        <time>2017-09-04T10:31:49Z</time>
      </trkpt>
      <trkpt lat="45.35458" lon="4.77369">
        <ele>141.608</ele>
        <time>2017-09-04T10:32:43Z</time>
      </trkpt>
      <trkpt lat="45.35446" lon="4.77378">
        <ele>141.512</ele>
        <time>2017-09-04T10:33:00Z</time>
      </trkpt>
      <trkpt lat="45.35434" lon="4.77387">
        <ele>141.994</ele>
        <time>2017-09-04T10:36:12Z</time>
      </trkpt>
      <trkpt lat="45.35434" lon="4.77409">
        <ele>141.666</ele>
        <time>2017-09-04T10:36:31Z</time>
      </trkpt>
      <trkpt lat="45.35437" lon="4.77424">
        <ele>141.6</ele>
        <time>2017-09-04T10:36:45Z</time>
      </trkpt>
      <trkpt lat="45.35435" lon="4.77435">
        <ele>141.592</ele>
        <time>2017-09-04T10:36:58Z</time>
      </trkpt>
      <trkpt lat="45.35435" lon="4.77444">
        <ele>142.231</ele>
        <time>2017-09-04T10:37:29Z</time>
      </trkpt>
      <trkpt lat="45.35432" lon="4.77457">
        <ele>142.261</ele>
        <time>2017-09-04T10:37:42Z</time>
      </trkpt>
      <trkpt lat="45.35429" lon="4.7747">
        <ele>142.083</ele>
        <time>2017-09-04T10:37:54Z</time>
      </trkpt>
      <trkpt lat="45.35431" lon="4.77489">
        <ele>141.806</ele>
        <time>2017-09-04T10:38:07Z</time>
      </trkpt>
      <trkpt lat="45.35434" lon="4.77511">
        <ele>142.112</ele>
        <time>2017-09-04T10:38:19Z</time>
      </trkpt>
      <trkpt lat="45.35432" lon="4.77529">
        <ele>142.404</ele>
        <time>2017-09-04T10:38:29Z</time>
      </trkpt>
      <trkpt lat="45.3543" lon="4.7754">
        <ele>142.505</ele>
        <time>2017-09-04T10:38:42Z</time>
      </trkpt>
      <trkpt lat="45.35425" lon="4.77557">
        <ele>141.954</ele>
        <time>2017-09-04T10:38:57Z</time>
      </trkpt>
      <trkpt lat="45.35419" lon="4.77574">
        <ele>141.358</ele>
        <time>2017-09-04T10:39:11Z</time>
      </trkpt>
      <trkpt lat="45.3542" lon="4.77581">
        <ele>141.783</ele>
        <time>2017-09-04T10:39:29Z</time>
      </trkpt>
      <trkpt lat="45.35419" lon="4.77594">
        <ele>140.033</ele>
        <time>2017-09-04T10:39:45Z</time>
      </trkpt>
      <trkpt lat="45.35415" lon="4.77612">
        <ele>141.669</ele>
        <time>2017-09-04T10:40:10Z</time>
      </trkpt>
      <trkpt lat="45.35414" lon="4.77641">
        <ele>141.706</ele>
        <time>2017-09-04T10:40:24Z</time>
      </trkpt>
      <trkpt lat="45.35412" lon="4.7766">
        <ele>141.152</ele>
        <time>2017-09-04T10:40:37Z</time>
      </trkpt>
      <trkpt lat="45.35408" lon="4.77665">
        <ele>140.845</ele>
        <time>2017-09-04T10:40:45Z</time>
      </trkpt>
      <trkpt lat="45.35403" lon="4.77668">
        <ele>140.985</ele>
        <time>2017-09-04T10:40:50Z</time>
      </trkpt>
      <trkpt lat="45.35403" lon="4.77682">
        <ele>143.151</ele>
        <time>2017-09-04T10:41:05Z</time>
      </trkpt>
      <trkpt lat="45.35406" lon="4.77684">
        <ele>144.217</ele>
        <time>2017-09-04T10:41:09Z</time>
      </trkpt>
      <trkpt lat="45.35413" lon="4.77682">
        <ele>143.945</ele>
        <time>2017-09-04T10:41:16Z</time>
      </trkpt>
      <trkpt lat="45.35429" lon="4.77675">
        <ele>144.081</ele>
        <time>2017-09-04T10:41:40Z</time>
      </trkpt>
      <trkpt lat="45.35433" lon="4.77675">
        <ele>143.968</ele>
        <time>2017-09-04T10:41:47Z</time>
      </trkpt>
      <trkpt lat="45.35441" lon="4.77674">
        <ele>143.928</ele>
        <time>2017-09-04T10:42:10Z</time>
      </trkpt>
      <trkpt lat="45.35449" lon="4.77671">
        <ele>144.224</ele>
        <time>2017-09-04T10:42:25Z</time>
      </trkpt>
      <trkpt lat="45.35465" lon="4.77669">
        <ele>143.987</ele>
        <time>2017-09-04T10:42:40Z</time>
      </trkpt>
      <trkpt lat="45.35469" lon="4.77668">
        <ele>143.885</ele>
        <time>2017-09-04T10:42:43Z</time>
      </trkpt>
      <trkpt lat="45.35477" lon="4.77668">
        <ele>144.085</ele>
        <time>2017-09-04T10:42:57Z</time>
      </trkpt>
      <trkpt lat="45.35494" lon="4.77667">
        <ele>144.36</ele>
        <time>2017-09-04T10:43:12Z</time>
      </trkpt>
      <trkpt lat="45.35507" lon="4.77667">
        <ele>144.443</ele>
        <time>2017-09-04T10:43:25Z</time>
      </trkpt>
      <trkpt lat="45.35511" lon="4.77667">
        <ele>144.294</ele>
        <time>2017-09-04T10:43:28Z</time>
      </trkpt>
      <trkpt lat="45.35516" lon="4.77668">
        <ele>144.423</ele>
        <time>2017-09-04T10:43:34Z</time>
      </trkpt>
      <trkpt lat="45.35519" lon="4.77669">
        <ele>144.273</ele>
        <time>2017-09-04T10:43:36Z</time>
      </trkpt>
      <trkpt lat="45.3553" lon="4.77675">
        <ele>144.492</ele>
        <time>2017-09-04T10:43:50Z</time>
      </trkpt>
      <trkpt lat="45.35545" lon="4.77675">
        <ele>144.729</ele>
        <time>2017-09-04T10:44:05Z</time>
      </trkpt>
      <trkpt lat="45.3556" lon="4.77678">
        <ele>144.656</ele>
        <time>2017-09-04T10:44:20Z</time>
      </trkpt>
      <trkpt lat="45.3557" lon="4.77681">
        <ele>144.624</ele>
        <time>2017-09-04T10:44:30Z</time>
      </trkpt>
      <trkpt lat="45.35579" lon="4.77682">
        <ele>144.515</ele>
        <time>2017-09-04T10:44:38Z</time>
      </trkpt>
      <trkpt lat="45.35589" lon="4.77687">
        <ele>144.89</ele>
        <time>2017-09-04T10:44:51Z</time>
      </trkpt>
      <trkpt lat="45.35597" lon="4.7769">
        <ele>145.112</ele>
        <time>2017-09-04T10:45:04Z</time>
      </trkpt>
      <trkpt lat="45.35601" lon="4.77691">
        <ele>144.856</ele>
        <time>2017-09-04T10:45:08Z</time>
      </trkpt>
      <trkpt lat="45.35614" lon="4.77698">
        <ele>144.8</ele>
        <time>2017-09-04T10:45:22Z</time>
      </trkpt>
      <trkpt lat="45.35632" lon="4.777">
        <ele>145.002</ele>
        <time>2017-09-04T10:45:38Z</time>
      </trkpt>
      <trkpt lat="45.35636" lon="4.77701">
        <ele>144.875</ele>
        <time>2017-09-04T10:45:52Z</time>
      </trkpt>
      <trkpt lat="45.35652" lon="4.77705">
        <ele>144.853</ele>
        <time>2017-09-04T10:46:07Z</time>
      </trkpt>
      <trkpt lat="45.35656" lon="4.77703">
        <ele>144.48</ele>
        <time>2017-09-04T10:46:11Z</time>
      </trkpt>
      <trkpt lat="45.35676" lon="4.77708">
        <ele>145.021</ele>
        <time>2017-09-04T10:46:30Z</time>
      </trkpt>
      <trkpt lat="45.35683" lon="4.77708">
        <ele>145.282</ele>
        <time>2017-09-04T10:46:38Z</time>
      </trkpt>
      <trkpt lat="45.35704" lon="4.77701">
        <ele>145.26</ele>
        <time>2017-09-04T10:46:57Z</time>
      </trkpt>
      <trkpt lat="45.35726" lon="4.77691">
        <ele>145.204</ele>
        <time>2017-09-04T10:47:17Z</time>
      </trkpt>
      <trkpt lat="45.35748" lon="4.7768">
        <ele>144.917</ele>
        <time>2017-09-04T10:47:39Z</time>
      </trkpt>
      <trkpt lat="45.35771" lon="4.77666">
        <ele>144.916</ele>
        <time>2017-09-04T10:48:02Z</time>
      </trkpt>
      <trkpt lat="45.35787" lon="4.7766">
        <ele>145.513</ele>
        <time>2017-09-04T10:48:17Z</time>
      </trkpt>
      <trkpt lat="45.35809" lon="4.77651">
        <ele>145.199</ele>
        <time>2017-09-04T10:48:38Z</time>
      </trkpt>
      <trkpt lat="45.35835" lon="4.77638">
        <ele>144.852</ele>
        <time>2017-09-04T10:49:02Z</time>
      </trkpt>
      <trkpt lat="45.35858" lon="4.77629">
        <ele>144.709</ele>
        <time>2017-09-04T10:49:22Z</time>
      </trkpt>
      <trkpt lat="45.35874" lon="4.77625">
        <ele>144.613</ele>
        <time>2017-09-04T10:49:38Z</time>
      </trkpt>
      <trkpt lat="45.359" lon="4.77616">
        <ele>144.821</ele>
        <time>2017-09-04T10:50:01Z</time>
      </trkpt>
      <trkpt lat="45.35904" lon="4.77615">
        <ele>144.61</ele>
        <time>2017-09-04T10:50:04Z</time>
      </trkpt>
      <trkpt lat="45.35926" lon="4.77604">
        <ele>145.097</ele>
        <time>2017-09-04T10:50:22Z</time>
      </trkpt>
      <trkpt lat="45.35941" lon="4.77601">
        <ele>145.282</ele>
        <time>2017-09-04T10:50:36Z</time>
      </trkpt>
      <trkpt lat="45.35951" lon="4.77603">
        <ele>144.996</ele>
        <time>2017-09-04T10:50:44Z</time>
      </trkpt>
      <trkpt lat="45.35955" lon="4.77604">
        <ele>145.044</ele>
        <time>2017-09-04T10:50:48Z</time>
      </trkpt>
      <trkpt lat="45.3597" lon="4.77605">
        <ele>145.213</ele>
        <time>2017-09-04T10:51:07Z</time>
      </trkpt>
      <trkpt lat="45.35978" lon="4.77603">
        <ele>145.244</ele>
        <time>2017-09-04T10:51:18Z</time>
      </trkpt>
      <trkpt lat="45.36005" lon="4.77608">
        <ele>145.267</ele>
        <time>2017-09-04T10:51:41Z</time>
      </trkpt>
      <trkpt lat="45.36009" lon="4.77609">
        <ele>144.623</ele>
        <time>2017-09-04T10:51:44Z</time>
      </trkpt>
      <trkpt lat="45.36016" lon="4.77612">
        <ele>145.077</ele>
        <time>2017-09-04T10:51:57Z</time>
      </trkpt>
      <trkpt lat="45.36026" lon="4.77614">
        <ele>145.063</ele>
        <time>2017-09-04T10:52:07Z</time>
      </trkpt>
      <trkpt lat="45.36029" lon="4.77623">
        <ele>145.138</ele>
        <time>2017-09-04T10:52:21Z</time>
      </trkpt>
      <trkpt lat="45.36034" lon="4.77618">
        <ele>145.197</ele>
        <time>2017-09-04T10:52:35Z</time>
      </trkpt>
      <trkpt lat="45.36053" lon="4.77603">
        <ele>145.231</ele>
        <time>2017-09-04T10:53:05Z</time>
      </trkpt>
      <trkpt lat="45.36071" lon="4.77589">
        <ele>145.122</ele>
        <time>2017-09-04T10:53:22Z</time>
      </trkpt>
      <trkpt lat="45.36088" lon="4.77574">
        <ele>144.657</ele>
        <time>2017-09-04T10:53:39Z</time>
      </trkpt>
      <trkpt lat="45.36107" lon="4.77554">
        <ele>144.93</ele>
        <time>2017-09-04T10:53:58Z</time>
      </trkpt>
      <trkpt lat="45.36133" lon="4.77533">
        <ele>144.443</ele>
        <time>2017-09-04T10:54:23Z</time>
      </trkpt>
      <trkpt lat="45.36151" lon="4.77516">
        <ele>144.8</ele>
        <time>2017-09-04T10:54:43Z</time>
      </trkpt>
      <trkpt lat="45.36153" lon="4.77516">
        <ele>144.556</ele>
        <time>2017-09-04T10:54:46Z</time>
      </trkpt>
      <trkpt lat="45.36157" lon="4.77512">
        <ele>144.949</ele>
        <time>2017-09-04T10:54:50Z</time>
      </trkpt>
      <trkpt lat="45.36186" lon="4.77491">
        <ele>144.991</ele>
        <time>2017-09-04T10:55:15Z</time>
      </trkpt>
      <trkpt lat="45.3621" lon="4.77468">
        <ele>144.64</ele>
        <time>2017-09-04T10:55:39Z</time>
      </trkpt>
      <trkpt lat="45.36241" lon="4.77442">
        <ele>144.133</ele>
        <time>2017-09-04T10:56:08Z</time>
      </trkpt>
      <trkpt lat="45.36268" lon="4.77416">
        <ele>144.047</ele>
        <time>2017-09-04T10:56:35Z</time>
      </trkpt>
      <trkpt lat="45.36294" lon="4.77394">
        <ele>144.288</ele>
        <time>2017-09-04T10:56:58Z</time>
      </trkpt>
      <trkpt lat="45.36318" lon="4.77372">
        <ele>143.714</ele>
        <time>2017-09-04T10:57:21Z</time>
      </trkpt>
      <trkpt lat="45.36349" lon="4.77342">
        <ele>143.82</ele>
        <time>2017-09-04T10:57:49Z</time>
      </trkpt>
      <trkpt lat="45.36366" lon="4.77327">
        <ele>143.915</ele>
        <time>2017-09-04T10:58:06Z</time>
      </trkpt>
      <trkpt lat="45.3639" lon="4.77304">
        <ele>144.145</ele>
        <time>2017-09-04T10:58:29Z</time>
      </trkpt>
      <trkpt lat="45.36397" lon="4.77297">
        <ele>143.534</ele>
        <time>2017-09-04T10:58:46Z</time>
      </trkpt>
      <trkpt lat="45.36392" lon="4.77273">
        <ele>143.018</ele>
        <time>2017-09-04T10:59:34Z</time>
      </trkpt>
      <trkpt lat="45.36408" lon="4.77263">
        <ele>143.076</ele>
        <time>2017-09-04T11:00:05Z</time>
      </trkpt>
      <trkpt lat="45.36416" lon="4.77245">
        <ele>142.389</ele>
        <time>2017-09-04T11:00:19Z</time>
      </trkpt>
      <trkpt lat="45.36418" lon="4.77234">
        <ele>141.934</ele>
        <time>2017-09-04T11:00:25Z</time>
      </trkpt>
      <trkpt lat="45.36425" lon="4.7721">
        <ele>141.275</ele>
        <time>2017-09-04T11:00:40Z</time>
      </trkpt>
      <trkpt lat="45.36434" lon="4.77173">
        <ele>141.239</ele>
        <time>2017-09-04T11:01:01Z</time>
      </trkpt>
      <trkpt lat="45.36442" lon="4.77135">
        <ele>140.88</ele>
        <time>2017-09-04T11:01:23Z</time>
      </trkpt>
      <trkpt lat="45.36445" lon="4.77123">
        <ele>141.002</ele>
        <time>2017-09-04T11:01:30Z</time>
      </trkpt>
      <trkpt lat="45.36454" lon="4.77092">
        <ele>141.09</ele>
        <time>2017-09-04T11:01:47Z</time>
      </trkpt>
      <trkpt lat="45.36471" lon="4.77043">
        <ele>141.317</ele>
        <time>2017-09-04T11:02:18Z</time>
      </trkpt>
      <trkpt lat="45.36473" lon="4.77036">
        <ele>141.04</ele>
        <time>2017-09-04T11:02:22Z</time>
      </trkpt>
      <trkpt lat="45.36482" lon="4.77003">
        <ele>141.573</ele>
        <time>2017-09-04T11:02:41Z</time>
      </trkpt>
      <trkpt lat="45.36495" lon="4.76963">
        <ele>141.115</ele>
        <time>2017-09-04T11:03:05Z</time>
      </trkpt>
      <trkpt lat="45.36507" lon="4.76922">
        <ele>141.316</ele>
        <time>2017-09-04T11:03:27Z</time>
      </trkpt>
      <trkpt lat="45.36519" lon="4.76879">
        <ele>141.03</ele>
        <time>2017-09-04T11:03:51Z</time>
      </trkpt>
      <trkpt lat="45.36536" lon="4.76825">
        <ele>141.585</ele>
        <time>2017-09-04T11:04:23Z</time>
      </trkpt>
      <trkpt lat="45.36552" lon="4.76774">
        <ele>140.735</ele>
        <time>2017-09-04T11:04:53Z</time>
      </trkpt>
      <trkpt lat="45.36568" lon="4.76719">
        <ele>141.175</ele>
        <time>2017-09-04T11:05:26Z</time>
      </trkpt>
      <trkpt lat="45.36584" lon="4.76661">
        <ele>140.439</ele>
        <time>2017-09-04T11:06:00Z</time>
      </trkpt>
      <trkpt lat="45.366" lon="4.76612">
        <ele>140.649</ele>
        <time>2017-09-04T11:06:30Z</time>
      </trkpt>
      <trkpt lat="45.36612" lon="4.76581">
        <ele>140.497</ele>
        <time>2017-09-04T11:06:49Z</time>
      </trkpt>
      <trkpt lat="45.36615" lon="4.76563">
        <ele>140.245</ele>
        <time>2017-09-04T11:07:04Z</time>
      </trkpt>
      <trkpt lat="45.36589" lon="4.76543">
        <ele>140.593</ele>
        <time>2017-09-04T11:07:28Z</time>
      </trkpt>
      <trkpt lat="45.36564" lon="4.76523">
        <ele>140.231</ele>
        <time>2017-09-04T11:07:51Z</time>
      </trkpt>
      <trkpt lat="45.3654" lon="4.76508">
        <ele>139.904</ele>
        <time>2017-09-04T11:08:16Z</time>
      </trkpt>
      <trkpt lat="45.36534" lon="4.76503">
        <ele>140.342</ele>
        <time>2017-09-04T11:08:30Z</time>
      </trkpt>
    </trkseg>
  </trk>
</gpx>